Αναφορές METAR Αεροδρομίων

 

LGTS - THESSALONIKI - GREECE
Ενημερώθηκε: 20/02/2019 07:50
Αραιές Νεφώσεις
Αραιές Νεφώσεις
 Ανεμος από Α
Ανεμος: Α 7 km/h
Θερμοκρασία: 3°C
Wind Chill: 1°C
Σημείο Δρόσου: 1°C
Υγρασία: 87%
Βαρόμετρο: 1020 hPa
Clouds: Αραιές Νεφώσεις
Visibility: 8 km
Cloud details: Αραιές Νεφώσεις 244 m
2019/02/20 05:50 LGTS 200550Z 10004KT 8000 FEW008 03/01 Q1020 NOSIG
LGLR - LARTISA - GREECE
Ενημερώθηκε: 20/02/2019 07:50
Mist, Μερικώς νεφελώδης
Mist, Μερικώς νεφελώδης
 Ανεμος από calm
Ανεμος: Απνοια
Θερμοκρασία: 0°C
Σημείο Δρόσου: 0°C
Υγρασία: 100%
Βαρόμετρο: 1020 hPa
Περίληψη: Mist
Clouds: Μερικώς νεφελώδης
Visibility: 2 km
2019/02/20 05:50 LGLR 200550Z 00000KT 1500 BR NSC 00/M00 Q1020 YLO
 
LGKZ - KOZANI - GREECE
Ενημερώθηκε: 20/02/2019 07:50
Αίθριος
Αίθριος
 Ανεμος από ΔΒΔ
Ανεμος: ΔΒΔ 7 km/h
Θερμοκρασία: 3°C
Wind Chill: 1°C
Σημείο Δρόσου: 1°C
Υγρασία: 87%
Βαρόμετρο: 1020 hPa
Περίληψη: Αίθριος
Visibility: greater than 10 km
2019/02/20 05:50 LGKZ 200550Z 30004KT CAVOK 03/01 Q1020
LGKV - KAVALA - GREECE
Ενημερώθηκε: 20/02/2019 07:50
Αίθριος
Αίθριος
 Ανεμος από calm
Ανεμος: Απνοια
Θερμοκρασία: 2°C
Σημείο Δρόσου: 0°C
Υγρασία: 87%
Βαρόμετρο: 1019 hPa
Περίληψη: Αίθριος
Visibility: greater than 10 km
2019/02/20 05:50 LGKV 200550Z 00000KT CAVOK 02/M00 Q1019
 
LGIO - IOANNINA - GREECE
Ενημερώθηκε: 19/02/2019 19:50
NOT Current
Αίθριος
Αίθριος
 Ανεμος από varies
Ανεμος: varies 0 km/h
Θερμοκρασία: 8°C
Σημείο Δρόσου: 4°C
Υγρασία: 76%
Βαρόμετρο: 1021 hPa
Περίληψη: Αίθριος
Visibility: greater than 10 km
2019/02/19 17:50 LGIO 191750Z /////KT CAVOK 08/04 Q1021
LGBL - BOLOS - GREECE
Ενημερώθηκε: 20/02/2019 07:50
Αίθριος
Αίθριος
 Ανεμος από Δ
Ανεμος: Δ 9 km/h
Θερμοκρασία: 4°C
Wind Chill: 2°C
Σημείο Δρόσου: 2°C
Υγρασία: 87%
Βαρόμετρο: 1020 hPa
Περίληψη: Αίθριος
Visibility: greater than 10 km
2019/02/20 05:50 LGBL 200550Z 26005KT CAVOK 04/02 Q1020
 
LGMT - MITILINI - GREECE
Ενημερώθηκε: 20/02/2019 07:50
Αραιές Νεφώσεις
Αραιές Νεφώσεις
 Ανεμος από calm
Ανεμος: Απνοια
Θερμοκρασία: 8°C
Σημείο Δρόσου: 5°C
Υγρασία: 82%
Βαρόμετρο: 1020 hPa
Clouds: Αραιές Νεφώσεις
Visibility: 9 km
Cloud details: Αραιές Νεφώσεις 610 m
2019/02/20 05:50 LGMT 200550Z 00000KT 9000 FEW020 08/05 Q1020
LGAV - ATHENS - GREECE
Ενημερώθηκε: 20/02/2019 07:50
Αίθριος
Αίθριος
 Ανεμος από varies
Ανεμος: varies 2 km/h
Θερμοκρασία: 3°C
Σημείο Δρόσου: 2°C
Υγρασία: 93%
Βαρόμετρο: 1020 hPa
Περίληψη: Αίθριος
Visibility: greater than 10 km
2019/02/20 05:50 LGAV 200550Z VRB01KT CAVOK 03/02 Q1020 NOSIG
 
LGRP - RODOS - GREECE
Ενημερώθηκε: 20/02/2019 07:50
Αραιές Νεφώσεις
Αραιές Νεφώσεις
 Ανεμος από varies
Ανεμος: varies 6 km/h
Θερμοκρασία: 12°C
Σημείο Δρόσου: 12°C
Υγρασία: 100%
Βαρόμετρο: 1019 hPa
Clouds: Αραιές Νεφώσεις
Visibility: 10 km
Cloud details: Αραιές Νεφώσεις 549 m
2019/02/20 05:50 LGRP 200550Z VRB03KT 9999 FEW018TCU 12/12 Q1019 NOSIG
LGIR - HRAKLIO/KRITI - GREECE
Ενημερώθηκε: 20/02/2019 07:50
Σχεδόν νεφελώδης
Σχεδόν νεφελώδης
 Ανεμος από Ν
Ανεμος: Ν 13 km/h
Θερμοκρασία: 9°C
Wind Chill: 7°C
Σημείο Δρόσου: 6°C
Υγρασία: 82%
Βαρόμετρο: 1020 hPa
Clouds: Σχεδόν νεφελώδης
Visibility: 10 km
Cloud details: Αραιές Νεφώσεις 610 m
Σχεδόν νεφελώδης 762 m
2019/02/20 05:50 LGIR 200550Z 17007KT 9999 FEW020 BKN025 09/06 Q1020 NOSIG
 
LGMK - MIKONOS - GREECE
Ενημερώθηκε: 20/02/2019 07:50
Αίθριος
Αίθριος
 Ανεμος από varies
Ανεμος: varies 6 km/h
Θερμοκρασία: 9°C
Σημείο Δρόσου: 8°C
Υγρασία: 94%
Βαρόμετρο: 1019 hPa
Περίληψη: Αίθριος
Visibility: greater than 10 km
2019/02/20 05:50 LGMK 200550Z VRB03KT CAVOK 09/08 Q1019
LGKR - KERKIRA - GREECE
Ενημερώθηκε: 20/02/2019 07:50
Αραιές Νεφώσεις
Αραιές Νεφώσεις
 Ανεμος από ΔΒΔ
Ανεμος: ΔΒΔ 6 km/h
Θερμοκρασία: 5°C
Σημείο Δρόσου: 5°C
Υγρασία: 100%
Βαρόμετρο: 1021 hPa
Clouds: Αραιές Νεφώσεις
Visibility: 7 km
Cloud details: Αραιές Νεφώσεις 244 m
2019/02/20 05:50 LGKR 200550Z 29003KT 7000 FEW008 05/05 Q1021 NOSIG